Nearby METAR Reports

 

KMSY - New Orleans,Louisiana, USA
Distance from station: E 11.7mi, 18.8km
Updated: Mon, 12-Nov-2018 11:37pm CST
Rain, Overcast
Rain, Overcast
 Wind from N
Wind: N 10 mph , 17 km/h
Temperature: 57°F , 14°C
Dew Point: 57°F , 14°C
Humidity: 100%
Barometer: 30.03 inHg , 1016.9 hPa
Summary: Rain
Clouds: Overcast
Visibility: 7 miles , 11 km
Cloud details: Partly cloudy 1100 ft
Mostly cloudy 3400 ft
Overcast 11000 ft
2018/11/13 05:37 KMSY 130537Z 35009KT 7SM RA SCT011 BKN034 OVC110 14/14 A3003 RMK AO2 P0003 T01390139 $
KAPS - Reserve,Louisiana, USA
Distance from station: W 8.4mi, 13.5km
Updated: Mon, 12-Nov-2018 11:35pm CST
Light rain, Overcast
Light rain, Overcast
 Wind from NNE
Wind: NNE 5 mph , 7 km/h
Temperature: 57°F , 14°C
Dew Point: 54°F , 12°C
Humidity: 88%
Barometer: 30.05 inHg , 1017.6 hPa
Summary: Light rain
Clouds: Overcast
Visibility: 10 miles , 16 km
Cloud details: Overcast 1100 ft
2018/11/13 05:35 KAPS 130535Z AUTO 02004KT 10SM -RA OVC011 14/12 A3005 RMK AO2 P0001 T01370121
 
KHDC - Hammond,Louisiana, USA
Distance from station: N 31.5mi, 50.6km
Updated: Mon, 12-Nov-2018 11:35pm CST
Drizzle, Overcast
Drizzle, Overcast
 Wind from WNW
Wind: WNW 3 mph , 6 km/h
Temperature: 54°F , 12°C
Dew Point: 54°F , 12°C
Humidity: 100%
Barometer: 30.07 inHg , 1018.3 hPa
Summary: Drizzle
Clouds: Overcast
Visibility: 10 miles , 16 km
Cloud details: Overcast 800 ft
2018/11/13 05:35 KHDC 130535Z AUTO 30003KT 10SM DZ OVC008 12/12 A3007 RMK AO2 P0001
KHUM - Houma,Louisiana, USA
Distance from station: SW 36.54mi, 58.8km
Updated: Mon, 12-Nov-2018 11:35pm CST
Light rain, Overcast
Light rain, Overcast
 Wind from N
Wind: N 13 mph , 20 km/h
Temperature: 55°F , 13°C
Dew Point: 55°F , 13°C
Humidity: 100%
Barometer: 30.02 inHg , 1016.6 hPa
Summary: Light rain
Clouds: Overcast
Visibility: 10 miles , 16 km
Cloud details: Overcast 800 ft
2018/11/13 05:35 KHUM 130535Z AUTO 36011KT 10SM -RA OVC008 13/13 A3002 RMK AO2 P0001 T01310126